createdAt,value
2023-01-17T00:02:11.703Z,9.35
2023-01-17T00:04:57.384Z,9.18
2023-01-17T00:07:43.751Z,8.10
2023-01-17T00:10:22.832Z,9.90
2023-01-17T00:12:50.993Z,8.10
2023-01-17T00:15:20.098Z,7.78
2023-01-17T00:17:48.060Z,7.85
2023-01-17T00:20:36.417Z,7.90
2023-01-17T00:23:52.355Z,7.75
2023-01-17T00:26:20.031Z,8.02
2023-01-17T00:28:47.154Z,8.25
2023-01-17T00:31:15.851Z,7.30
2023-01-17T00:33:42.956Z,8.63
2023-01-17T00:36:10.988Z,8.02
2023-01-17T00:38:39.407Z,8.13
2023-01-17T00:41:08.397Z,8.02
2023-01-17T00:43:53.988Z,8.27
2023-01-17T00:46:39.491Z,7.97
2023-01-17T00:49:25.406Z,8.43
2023-01-17T00:52:10.659Z,7.18
2023-01-17T00:54:55.944Z,7.75
2023-01-17T00:57:41.705Z,8.63
2023-01-17T01:00:27.772Z,8.68
2023-01-17T01:03:13.029Z,8.10
2023-01-17T01:05:58.459Z,9.38
2023-01-17T01:08:46.690Z,9.02
2023-01-17T01:11:39.994Z,10.13
2023-01-17T01:14:28.400Z,8.65
2023-01-17T01:17:14.082Z,8.88
2023-01-17T01:19:59.694Z,9.40
2023-01-17T01:22:44.911Z,9.77
2023-01-17T01:25:30.396Z,9.23
2023-01-17T01:28:28.849Z,10.05
2023-01-17T01:31:14.956Z,10.10
2023-01-17T01:33:41.969Z,11.48
2023-01-17T01:36:09.271Z,10.07
2023-01-17T01:38:36.388Z,10.45
2023-01-17T01:41:03.549Z,9.70
2023-01-17T01:43:41.281Z,11.18
2023-01-17T01:46:11.683Z,10.25
2023-01-17T01:48:55.802Z,9.10
2023-01-17T01:51:36.168Z,9.80
2023-01-17T01:54:08.852Z,10.00
2023-01-17T01:56:36.992Z,9.00
2023-01-17T01:59:07.105Z,9.93
2023-01-17T02:01:35.453Z,9.77
2023-01-17T02:04:03.576Z,10.27
2023-01-17T02:06:42.210Z,9.85
2023-01-17T02:09:12.542Z,10.48
2023-01-17T02:11:41.293Z,9.55
2023-01-17T02:14:08.869Z,10.20
2023-01-17T02:17:05.801Z,10.13
2023-01-17T02:19:44.487Z,9.85
2023-01-17T02:22:28.048Z,9.32
2023-01-17T02:25:23.127Z,9.55
2023-01-17T02:28:17.228Z,8.57
2023-01-17T02:30:50.790Z,7.25
2023-01-17T02:33:23.175Z,7.55
2023-01-17T02:36:11.389Z,7.68
2023-01-17T02:38:51.959Z,7.97
2023-01-17T02:41:23.045Z,7.87
2023-01-17T02:43:51.921Z,7.75
2023-01-17T02:46:18.691Z,8.18
2023-01-17T02:48:46.520Z,7.57
2023-01-17T02:51:48.481Z,8.00
2023-01-17T02:54:18.258Z,6.70
2023-01-17T02:57:03.672Z,8.18
2023-01-17T02:59:52.223Z,8.00
2023-01-17T03:02:51.680Z,8.10
2023-01-17T03:05:49.467Z,8.10
2023-01-17T03:08:17.337Z,8.88
2023-01-17T03:10:45.631Z,9.43
2023-01-17T03:13:12.766Z,9.70
2023-01-17T03:15:40.764Z,10.80
2023-01-17T03:18:13.859Z,9.80
2023-01-17T03:20:40.992Z,9.23
2023-01-17T03:23:07.941Z,10.07
2023-01-17T03:25:35.407Z,10.80
2023-01-17T03:28:02.255Z,10.35
2023-01-17T03:30:29.006Z,12.07
2023-01-17T03:32:55.813Z,11.50
2023-01-17T03:35:22.740Z,11.15
2023-01-17T03:37:49.485Z,10.68
2023-01-17T03:40:16.476Z,10.60
2023-01-17T03:42:43.889Z,11.00
2023-01-17T03:45:11.333Z,10.00
2023-01-17T03:47:38.056Z,9.45
2023-01-17T03:50:05.346Z,9.13
2023-01-17T03:52:32.787Z,9.18
2023-01-17T03:54:59.745Z,8.43
2023-01-17T03:57:26.538Z,8.93
2023-01-17T03:59:53.264Z,8.07
2023-01-17T04:02:20.297Z,10.25
2023-01-17T04:04:47.242Z,7.65
2023-01-17T04:07:13.987Z,7.60
2023-01-17T04:09:40.765Z,7.63
2023-01-17T04:12:07.713Z,8.27
2023-01-17T04:14:34.894Z,8.18
2023-01-17T04:17:02.727Z,8.02
2023-01-17T04:19:31.675Z,8.05
2023-01-17T04:21:58.423Z,7.38
2023-01-17T04:24:25.159Z,7.88
2023-01-17T04:26:51.911Z,8.85
2023-01-17T04:29:18.844Z,8.68
2023-01-17T04:31:46.460Z,8.80
2023-01-17T04:34:13.682Z,9.15
2023-01-17T04:36:40.741Z,10.18
2023-01-17T04:39:07.629Z,9.55
2023-01-17T04:41:35.395Z,9.68
2023-01-17T04:44:02.301Z,10.07
2023-01-17T04:46:29.131Z,10.18
2023-01-17T04:48:55.935Z,10.23
2023-01-17T04:51:22.665Z,9.55
2023-01-17T04:53:49.398Z,10.48
2023-01-17T04:56:16.150Z,9.93
2023-01-17T04:58:42.847Z,10.77
2023-01-17T05:01:10.111Z,10.55
2023-01-17T05:03:37.204Z,10.07
2023-01-17T05:06:03.991Z,10.00
2023-01-17T05:08:30.851Z,10.88
2023-01-17T05:10:57.671Z,9.48
2023-01-17T05:13:24.443Z,10.18
2023-01-17T05:15:51.336Z,9.90
2023-01-17T05:18:19.297Z,9.85
2023-01-17T05:20:46.170Z,9.75
2023-01-17T05:23:13.022Z,9.85
2023-01-17T05:25:44.897Z,11.90
2023-01-17T05:28:13.340Z,12.23
2023-01-17T05:30:40.388Z,12.40
2023-01-17T05:33:08.369Z,11.43
2023-01-17T05:35:35.779Z,10.38
2023-01-17T05:38:02.655Z,11.18
2023-01-17T05:40:31.679Z,11.90
2023-01-17T05:43:00.769Z,12.88
2023-01-17T05:45:29.873Z,13.23
2023-01-17T05:47:57.391Z,14.15
2023-01-17T05:50:42.533Z,14.38
2023-01-17T05:53:12.109Z,13.27
2023-01-17T05:55:39.958Z,14.18
2023-01-17T05:58:08.897Z,15.02
2023-01-17T06:00:35.922Z,18.42
2023-01-17T06:03:02.956Z,20.10
2023-01-17T06:05:30.619Z,16.70
2023-01-17T06:07:58.131Z,15.35
2023-01-17T06:10:26.481Z,14.38
2023-01-17T06:13:03.733Z,12.82
2023-01-17T06:15:30.828Z,13.10
2023-01-17T06:17:57.595Z,12.95
2023-01-17T06:20:24.449Z,13.25
2023-01-17T06:22:51.227Z,12.63
2023-01-17T06:25:18.035Z,14.90
2023-01-17T06:27:44.869Z,15.65
2023-01-17T06:30:12.032Z,16.50
2023-01-17T06:32:38.830Z,15.80
2023-01-17T06:35:05.965Z,14.43
2023-01-17T06:37:32.775Z,14.15
2023-01-17T06:39:59.552Z,13.02
2023-01-17T06:42:26.333Z,16.48
2023-01-17T06:44:53.060Z,16.83
2023-01-17T06:47:19.823Z,14.68
2023-01-17T06:49:46.811Z,15.65
2023-01-17T06:52:13.623Z,14.05
2023-01-17T06:54:40.544Z,14.43
2023-01-17T06:57:09.910Z,13.93
2023-01-17T06:59:36.696Z,14.63
2023-01-17T07:02:03.477Z,15.63
2023-01-17T07:04:30.419Z,15.90
2023-01-17T07:06:57.200Z,16.65
2023-01-17T07:09:23.990Z,18.48
2023-01-17T07:11:52.005Z,18.92
2023-01-17T07:14:18.798Z,16.38
2023-01-17T07:16:46.309Z,17.08
2023-01-17T07:19:13.401Z,15.75
2023-01-17T07:21:40.552Z,16.40
2023-01-17T07:24:07.869Z,18.67
2023-01-17T07:26:40.909Z,18.67
2023-01-17T07:29:07.792Z,19.33
2023-01-17T07:31:36.942Z,22.45
2023-01-17T07:34:04.263Z,21.65
2023-01-17T07:36:31.054Z,23.33
2023-01-17T07:38:57.896Z,20.40
2023-01-17T07:41:24.721Z,22.67
2023-01-17T07:43:51.607Z,22.70
2023-01-17T07:46:18.958Z,23.48
2023-01-17T07:48:45.915Z,22.52
2023-01-17T07:51:12.748Z,24.33
2023-01-17T07:53:39.645Z,25.55
2023-01-17T07:56:08.009Z,24.23
2023-01-17T07:58:35.794Z,25.33
2023-01-17T08:01:05.208Z,24.42
2023-01-17T08:03:35.714Z,25.17
2023-01-17T08:06:03.286Z,26.13
2023-01-17T08:08:30.216Z,25.63
2023-01-17T08:10:57.074Z,27.10
2023-01-17T08:13:24.194Z,30.15
2023-01-17T08:15:51.772Z,28.67
2023-01-17T08:18:18.697Z,28.00
2023-01-17T08:20:45.487Z,27.55
2023-01-17T08:23:12.683Z,27.17
2023-01-17T08:25:40.629Z,28.65
2023-01-17T08:28:07.391Z,30.27
2023-01-17T08:30:35.764Z,33.88
2023-01-17T08:33:02.703Z,31.17
2023-01-17T08:35:29.574Z,31.80
2023-01-17T08:37:57.708Z,30.52
2023-01-17T08:40:24.667Z,30.98
2023-01-17T08:42:58.989Z,29.40
2023-01-17T08:45:26.418Z,27.98
2023-01-17T08:47:53.990Z,32.38
2023-01-17T08:50:20.914Z,30.35
2023-01-17T08:52:49.255Z,30.63
2023-01-17T08:55:17.202Z,28.80
2023-01-17T08:57:44.006Z,31.83
2023-01-17T09:00:11.349Z,29.67
2023-01-17T09:02:38.197Z,28.50
2023-01-17T09:05:05.491Z,28.05
2023-01-17T09:07:35.322Z,27.85
2023-01-17T09:10:02.342Z,24.27
2023-01-17T09:12:33.423Z,22.90
2023-01-17T09:15:01.022Z,20.85
2023-01-17T09:17:27.984Z,23.30
2023-01-17T09:19:54.708Z,23.60
2023-01-17T09:22:21.529Z,21.38
2023-01-17T09:24:48.233Z,23.35
2023-01-17T09:27:14.965Z,21.30
2023-01-17T09:29:41.969Z,21.60
2023-01-17T09:32:08.759Z,20.42
2023-01-17T09:34:36.649Z,23.48
2023-01-17T09:37:03.534Z,20.15
2023-01-17T09:39:30.315Z,19.88
2023-01-17T09:42:22.790Z,19.52
2023-01-17T09:44:52.209Z,17.58
2023-01-17T09:47:45.244Z,17.85
2023-01-17T09:50:23.989Z,17.30
2023-01-17T09:52:52.236Z,14.93
2023-01-17T09:55:19.936Z,15.35
2023-01-17T09:58:08.758Z,14.63
2023-01-17T10:00:55.478Z,14.00
2023-01-17T10:03:43.694Z,12.10
2023-01-17T10:06:24.151Z,12.88
2023-01-17T10:09:12.699Z,9.45
2023-01-17T10:12:13.907Z,10.57
2023-01-17T10:15:37.684Z,8.55
2023-01-17T10:18:30.494Z,8.00
2023-01-17T10:21:15.227Z,7.75
2023-01-17T10:23:59.979Z,6.72
2023-01-17T10:26:27.890Z,7.05
2023-01-17T10:29:02.618Z,6.63
2023-01-17T10:31:40.930Z,6.85
2023-01-17T10:34:44.372Z,6.07
2023-01-17T10:37:21.178Z,5.80
2023-01-17T10:39:50.007Z,6.18
2023-01-17T10:42:25.264Z,5.30
2023-01-17T10:45:21.168Z,4.75
2023-01-17T10:47:58.222Z,5.18
2023-01-17T10:50:28.283Z,5.68
2023-01-17T10:53:01.320Z,4.60
2023-01-17T10:55:37.701Z,5.63
2023-01-17T10:58:05.367Z,4.43
2023-01-17T11:00:44.390Z,4.47
2023-01-17T11:03:17.482Z,4.93
2023-01-17T11:05:44.402Z,4.47
2023-01-17T11:08:13.916Z,4.45
2023-01-17T11:10:54.438Z,5.75
2023-01-17T11:13:38.568Z,4.97
2023-01-17T11:16:09.291Z,5.03
2023-01-17T11:18:40.450Z,5.70
2023-01-17T11:21:16.527Z,5.70
2023-01-17T11:23:47.022Z,5.95
2023-01-17T11:26:23.314Z,5.73
2023-01-17T11:28:51.955Z,5.75
2023-01-17T11:31:18.733Z,5.90
2023-01-17T11:33:56.760Z,7.00
2023-01-17T11:36:29.134Z,7.95
2023-01-17T11:39:04.333Z,6.82
2023-01-17T11:41:39.691Z,5.72
2023-01-17T11:44:30.163Z,5.45
2023-01-17T11:47:11.780Z,5.38
2023-01-17T11:49:40.108Z,4.47
2023-01-17T11:52:10.782Z,4.40
2023-01-17T11:54:40.549Z,5.35
2023-01-17T11:57:20.319Z,5.65
2023-01-17T11:59:48.248Z,5.65
2023-01-17T12:02:41.237Z,4.80
2023-01-17T12:05:32.189Z,3.88
2023-01-17T12:08:01.668Z,3.97
2023-01-17T12:10:50.393Z,5.78
2023-01-17T12:14:08.260Z,3.58
2023-01-17T12:16:43.948Z,3.92
2023-01-17T12:19:22.556Z,3.83
2023-01-17T12:22:03.929Z,3.47
2023-01-17T12:25:08.012Z,4.00
2023-01-17T12:27:55.988Z,4.68
2023-01-17T12:30:41.961Z,3.75
2023-01-17T12:33:29.839Z,3.63
2023-01-17T12:36:01.650Z,4.18
2023-01-17T12:38:40.196Z,3.72
2023-01-17T12:41:38.307Z,3.67
2023-01-17T12:44:05.630Z,2.83
2023-01-17T12:46:43.372Z,3.22
2023-01-17T12:49:16.317Z,2.72
2023-01-17T12:51:47.304Z,2.40
2023-01-17T12:54:40.222Z,2.90
2023-01-17T12:57:14.416Z,2.22
2023-01-17T12:59:54.731Z,2.25
2023-01-17T13:02:41.719Z,2.53
2023-01-17T13:05:23.938Z,2.45
2023-01-17T13:08:31.391Z,2.00
2023-01-17T13:11:11.589Z,2.60
2023-01-17T13:13:41.379Z,4.78
2023-01-17T13:16:37.699Z,6.97
2023-01-17T13:19:15.813Z,5.03
2023-01-17T13:21:42.996Z,6.45
2023-01-17T13:24:22.806Z,7.25
2023-01-17T13:27:10.757Z,7.68
2023-01-17T13:29:55.710Z,14.30
2023-01-17T13:32:44.207Z,17.30
2023-01-17T13:35:45.180Z,14.70
2023-01-17T13:38:37.155Z,5.32
2023-01-17T13:41:09.927Z,2.67
2023-01-17T13:43:40.735Z,2.40
2023-01-17T13:46:07.945Z,1.70
2023-01-17T13:48:45.177Z,2.15
2023-01-17T13:51:11.946Z,1.77
2023-01-17T13:53:38.843Z,1.58
2023-01-17T13:56:27.788Z,1.45
2023-01-17T13:59:02.207Z,1.52
2023-01-17T14:01:32.364Z,1.73
2023-01-17T14:04:02.389Z,1.70
2023-01-17T14:06:47.993Z,1.75
2023-01-17T14:09:17.368Z,1.67
2023-01-17T14:12:00.588Z,1.73
2023-01-17T14:14:43.115Z,1.73
2023-01-17T14:17:31.343Z,2.15
2023-01-17T14:20:19.358Z,2.20
2023-01-17T14:22:55.843Z,1.92
2023-01-17T14:25:40.388Z,2.00
2023-01-17T14:28:31.689Z,1.92
2023-01-17T14:31:01.026Z,1.70
2023-01-17T14:33:46.131Z,2.00
2023-01-17T14:36:25.932Z,1.83
2023-01-17T14:38:52.871Z,2.17
2023-01-17T14:41:30.818Z,2.05
2023-01-17T14:44:00.170Z,1.73
2023-01-17T14:46:30.095Z,2.17
2023-01-17T14:49:21.456Z,1.70
2023-01-17T14:52:06.432Z,1.48
2023-01-17T14:54:33.647Z,1.65
2023-01-17T14:57:28.378Z,2.17
2023-01-17T15:00:22.199Z,2.58
2023-01-17T15:02:50.739Z,1.80
2023-01-17T15:05:20.484Z,2.65
2023-01-17T15:07:53.260Z,1.55
2023-01-17T15:10:27.189Z,1.67
2023-01-17T15:12:56.373Z,1.23
2023-01-17T15:15:42.299Z,2.15
2023-01-17T15:18:20.203Z,1.35
2023-01-17T15:21:09.212Z,1.20
2023-01-17T15:23:46.088Z,1.75
2023-01-17T15:26:18.413Z,1.27
2023-01-17T15:28:46.197Z,1.10
2023-01-17T15:31:45.798Z,1.10
2023-01-17T15:34:35.933Z,1.42
2023-01-17T15:37:22.536Z,1.80
2023-01-17T15:39:49.613Z,1.58
2023-01-17T15:42:24.323Z,3.58
2023-01-17T15:44:57.622Z,1.48
2023-01-17T15:47:33.501Z,1.55
2023-01-17T15:50:02.891Z,1.60
2023-01-17T15:52:29.957Z,1.92
2023-01-17T15:55:12.787Z,1.80
2023-01-17T15:57:40.173Z,3.10
2023-01-17T16:00:20.761Z,3.53
2023-01-17T16:02:55.165Z,2.60
2023-01-17T16:05:22.617Z,3.40
2023-01-17T16:07:54.908Z,2.20
2023-01-17T16:10:31.958Z,2.28
2023-01-17T16:12:59.609Z,2.50
2023-01-17T16:15:27.375Z,1.50
2023-01-17T16:18:02.770Z,1.40
2023-01-17T16:20:35.152Z,1.73
2023-01-17T16:23:02.858Z,1.20
2023-01-17T16:25:33.062Z,1.52
2023-01-17T16:28:03.879Z,1.33
2023-01-17T16:30:31.093Z,1.40
2023-01-17T16:32:58.705Z,1.10
2023-01-17T16:35:31.502Z,0.93
2023-01-17T16:38:04.071Z,1.00
2023-01-17T16:40:39.303Z,0.90
2023-01-17T16:43:06.383Z,0.85
2023-01-17T16:45:40.305Z,1.20
2023-01-17T16:48:07.418Z,1.00
2023-01-17T16:50:34.304Z,1.00
2023-01-17T16:53:01.098Z,1.02
2023-01-17T16:55:27.860Z,1.00
2023-01-17T16:57:58.128Z,0.80
2023-01-17T17:00:25.135Z,0.93
2023-01-17T17:02:52.815Z,1.00
2023-01-17T17:05:20.348Z,1.10
2023-01-17T17:07:51.487Z,1.00
2023-01-17T17:10:20.049Z,1.30
2023-01-17T17:12:47.273Z,1.00
2023-01-17T17:15:14.608Z,1.10
2023-01-17T17:17:43.353Z,1.13
2023-01-17T17:20:13.278Z,1.20
2023-01-17T17:22:43.160Z,1.50
2023-01-17T17:25:11.833Z,1.40
2023-01-17T17:27:38.962Z,1.40
2023-01-17T17:30:06.621Z,1.40
2023-01-17T17:32:34.225Z,1.10
2023-01-17T17:35:00.990Z,1.10
2023-01-17T17:37:29.294Z,1.60
2023-01-17T17:39:57.208Z,1.10
2023-01-17T17:42:24.053Z,1.02
2023-01-17T17:44:51.007Z,1.02
2023-01-17T17:47:18.133Z,1.48
2023-01-17T17:49:45.007Z,2.13
2023-01-17T17:52:11.995Z,1.30
2023-01-17T17:54:38.775Z,1.20
2023-01-17T17:57:05.567Z,1.23
2023-01-17T17:59:33.037Z,1.10
2023-01-17T18:01:59.918Z,1.20
2023-01-17T18:04:27.573Z,0.80
2023-01-17T18:06:58.502Z,2.40
2023-01-17T18:09:25.465Z,1.35
2023-01-17T18:11:52.335Z,1.30
2023-01-17T18:14:21.321Z,1.10
2023-01-17T18:16:48.257Z,1.40
2023-01-17T18:19:20.945Z,1.40
2023-01-17T18:21:49.522Z,1.10
2023-01-17T18:24:17.721Z,1.30
2023-01-17T18:26:50.323Z,1.20
2023-01-17T18:29:18.620Z,1.60
2023-01-17T18:31:46.097Z,1.27
2023-01-17T18:34:16.022Z,1.35
2023-01-17T18:36:43.890Z,2.05
2023-01-17T18:39:18.896Z,1.30
2023-01-17T18:41:45.933Z,1.48
2023-01-17T18:44:12.999Z,1.50
2023-01-17T18:46:40.530Z,1.40
2023-01-17T18:49:07.745Z,6.55
2023-01-17T18:51:35.535Z,1.55
2023-01-17T18:54:07.005Z,6.50
2023-01-17T18:56:35.052Z,10.60
2023-01-17T18:59:02.360Z,6.60
2023-01-17T19:01:33.648Z,2.42
2023-01-17T19:04:04.011Z,1.60
2023-01-17T19:06:37.661Z,1.30
2023-01-17T19:09:05.802Z,1.45
2023-01-17T19:11:32.943Z,2.70
2023-01-17T19:13:59.977Z,3.88
2023-01-17T19:16:29.634Z,2.13
2023-01-17T19:18:58.514Z,2.28
2023-01-17T19:21:28.002Z,3.20
2023-01-17T19:23:56.653Z,2.15
2023-01-17T19:26:25.614Z,2.10
2023-01-17T19:28:53.146Z,5.97
2023-01-17T19:31:27.992Z,2.95
2023-01-17T19:33:57.656Z,1.85
2023-01-17T19:36:31.338Z,2.30
2023-01-17T19:39:04.898Z,1.60
2023-01-17T19:41:35.400Z,1.33
2023-01-17T19:44:12.765Z,2.08
2023-01-17T19:46:39.733Z,3.85
2023-01-17T19:49:08.190Z,2.85
2023-01-17T19:51:36.516Z,2.10
2023-01-17T19:54:04.314Z,1.60
2023-01-17T19:56:31.233Z,1.67
2023-01-17T19:59:01.516Z,1.80
2023-01-17T20:01:30.863Z,1.63
2023-01-17T20:03:58.613Z,2.10
2023-01-17T20:06:29.195Z,2.60
2023-01-17T20:08:56.185Z,1.63
2023-01-17T20:11:25.118Z,1.95
2023-01-17T20:13:54.391Z,2.78
2023-01-17T20:16:22.333Z,2.33
2023-01-17T20:18:50.259Z,3.58
2023-01-17T20:21:20.080Z,3.60
2023-01-17T20:23:48.391Z,2.45
2023-01-17T20:26:20.939Z,2.45
2023-01-17T20:28:50.003Z,3.10
2023-01-17T20:31:20.374Z,2.47
2023-01-17T20:33:50.498Z,2.70
2023-01-17T20:36:19.079Z,2.83
2023-01-17T20:38:46.603Z,3.65
2023-01-17T20:41:14.541Z,6.82
2023-01-17T20:43:42.753Z,3.80
2023-01-17T20:46:10.505Z,1.77
2023-01-17T20:48:43.532Z,2.17
2023-01-17T20:51:11.788Z,1.88
2023-01-17T20:53:39.797Z,3.40
2023-01-17T20:56:08.872Z,2.40
2023-01-17T20:58:36.418Z,2.78
2023-01-17T21:01:03.320Z,2.20
2023-01-17T21:03:31.706Z,2.25
2023-01-17T21:06:09.862Z,2.15
2023-01-17T21:08:39.450Z,2.20
2023-01-17T21:11:07.795Z,2.42
2023-01-17T21:13:36.004Z,2.80
2023-01-17T21:16:03.083Z,2.67
2023-01-17T21:18:33.248Z,2.20
2023-01-17T21:21:09.129Z,3.17
2023-01-17T21:23:37.832Z,3.20
2023-01-17T21:26:06.753Z,2.40
2023-01-17T21:28:37.428Z,2.92
2023-01-17T21:31:19.795Z,2.75
2023-01-17T21:34:07.125Z,1.90
2023-01-17T21:36:37.642Z,1.92
2023-01-17T21:39:07.613Z,1.30
2023-01-17T21:41:38.109Z,1.80
2023-01-17T21:44:08.727Z,2.20
2023-01-17T21:46:40.589Z,2.78
2023-01-17T21:49:12.319Z,2.30
2023-01-17T21:51:54.850Z,2.60
2023-01-17T21:54:47.923Z,2.10
2023-01-17T21:57:35.971Z,1.98
2023-01-17T22:00:07.837Z,2.28
2023-01-17T22:02:35.040Z,2.10
2023-01-17T22:05:01.863Z,2.08
2023-01-17T22:07:29.244Z,2.45
2023-01-17T22:09:57.050Z,2.13
2023-01-17T22:12:24.193Z,2.30
2023-01-17T22:14:51.190Z,2.80
2023-01-17T22:17:18.006Z,3.10
2023-01-17T22:19:46.116Z,2.58
2023-01-17T22:22:13.287Z,3.00
2023-01-17T22:24:40.668Z,2.85
2023-01-17T22:27:10.584Z,2.90
2023-01-17T22:29:38.077Z,2.65
2023-01-17T22:32:05.544Z,3.10
2023-01-17T22:34:32.463Z,2.08
2023-01-17T22:37:00.563Z,2.78
2023-01-17T22:39:27.404Z,2.88
2023-01-17T22:41:54.129Z,3.55
2023-01-17T22:44:21.063Z,4.00
2023-01-17T22:46:48.225Z,4.22
2023-01-17T22:49:16.928Z,3.60
2023-01-17T22:51:43.855Z,4.78
2023-01-17T22:54:11.617Z,4.72
2023-01-17T22:56:38.405Z,4.30
2023-01-17T22:59:11.431Z,4.55
2023-01-17T23:01:42.421Z,4.68
2023-01-17T23:04:13.868Z,4.72
2023-01-17T23:06:41.763Z,6.28
2023-01-17T23:09:11.608Z,5.30
2023-01-17T23:11:43.041Z,4.28
2023-01-17T23:14:16.119Z,3.63
2023-01-17T23:17:08.087Z,3.47
2023-01-17T23:19:41.793Z,4.07
2023-01-17T23:22:17.455Z,4.05
2023-01-17T23:25:09.243Z,4.05
2023-01-17T23:27:58.884Z,3.65
2023-01-17T23:30:34.898Z,3.97
2023-01-17T23:33:07.324Z,5.18
2023-01-17T23:35:41.559Z,3.75
2023-01-17T23:38:31.368Z,3.80
2023-01-17T23:41:21.898Z,3.72
2023-01-17T23:43:58.473Z,3.78
2023-01-17T23:46:26.618Z,3.30
2023-01-17T23:48:55.174Z,3.38
2023-01-17T23:51:22.087Z,3.33
2023-01-17T23:53:48.872Z,3.38
2023-01-17T23:56:18.969Z,3.30
2023-01-17T23:58:46.958Z,2.55
